Extended Streamflow Prediction
Issued by NWS Lower Mississippi RFC

Current Version | Previous Version | Text Only | Print | Product List | Glossary On
Versions: 1 2 3 4 5 6 7 8 9 10 11 12 13 14 15 16 17 18 19 20 21 22 23 24 25 26 27 28 29 30 31 32 33 34 35 36 37 38 39 40 41 42 43 44 45 46 47 48 49 50
993
FGUS64 KORN 221445
ESPORN

EXTENDED STREAMFLOW PREDICTION
NATIONAL WEATHER SERVICE RIVER FORECAST CENTER, SLIDELL, LA
0944 AM CDT FRI SEP 22 2017

   DATE   CPGM7 CIRI2 NMDM7 TPTT1 CRTM7 OSGA4 MEMT1 TRPM6 HEEA4
09-23-17   11.6  11.5   0.6   4.0   5.3  -3.4  -3.2   7.7   3.4
09-24-17   11.7  11.0   0.0   3.1   4.4  -4.0  -3.3   7.8   3.7
09-25-17   12.2  10.8  -0.4   2.6   3.8  -4.9  -4.4   7.2   3.6
09-26-17   12.6  10.8  -0.5   2.4   3.5  -5.4  -5.0   6.3   2.5
09-27-17   12.1  10.8  -0.5   2.4   3.4  -5.6  -5.4   5.8   1.8
09-28-17   11.4  10.7  -0.6   2.4   3.4  -5.7  -5.5   5.6   1.4
09-29-17   11.0  10.6  -0.6   2.3   3.3  -5.7  -5.5   5.6   1.3
09-30-17   10.9  10.5  -0.8   2.2   3.3  -5.7  -5.6   5.5   1.3
10-01-17   11.0  10.4  -0.9   2.2   3.1  -5.8  -5.6   5.5   1.2
10-02-17   11.0  10.2  -1.0   2.0   3.1  -5.9  -5.8   5.4   1.2
10-03-17   11.0  10.1  -1.0   2.0   3.0  -6.0  -5.9   5.3   1.0
10-04-17   10.9  10.0  -1.2   1.9   2.9  -6.1  -6.0   5.2   0.9
10-05-17   10.8   9.9  -1.3   1.7   2.8  -6.2  -6.0   5.1   0.8
10-06-17   10.7   9.8  -1.4   1.7   2.7  -6.3  -6.2   5.0   0.8
10-07-17   10.6   9.8  -1.4   1.6   2.6  -6.4  -6.3   4.9   0.6
10-08-17   10.6   9.7  -1.5   1.6   2.6  -6.5  -6.3   4.8   0.5
10-09-17   10.5   9.6  -1.6   1.5   2.5  -6.5  -6.4   4.8   0.5
10-10-17   10.3   9.6  -1.6   1.4   2.5  -6.6  -6.5   4.7   0.4
10-11-17   10.2   9.5  -1.7   1.4   2.4  -6.7  -6.5   4.6   0.3
10-12-17   10.1   9.4  -1.8   1.3   2.4  -6.7  -6.6   4.6   0.3
10-13-17   10.0   9.3  -1.8   1.2   2.3  -6.8  -6.7   4.5   0.2
10-14-17    9.9   9.3  -1.9   1.2   2.2  -6.9  -6.8   4.4   0.2
10-15-17    9.7   9.2  -2.0   1.1   2.2  -6.9  -6.8   4.4   0.1
10-16-17    9.6   9.1  -2.1   1.0   2.1  -7.0  -6.9   4.3   0.0
10-17-17    9.5   9.0  -2.1   1.0   2.0  -7.1  -6.9   4.3  -0.1
10-18-17    9.4   9.0  -2.2   0.9   2.0  -7.1  -7.0   4.2  -0.1
10-19-17    9.3   8.9  -2.3   0.8   1.9  -7.2  -7.1   4.2  -0.2
10-20-17    9.2   8.8  -2.3   0.8   1.9  -7.3  -7.1   4.1  -0.3

   DATE   ARSA4 GEEM6 VCKM6 NTZM6 RRLL1 BTRL1 DONL1 RRVL1 NORL1
09-23-17    4.5  14.3  10.6  19.7  24.4  10.3   6.1   5.0   3.4
09-24-17    4.4  14.0   9.5  18.9  23.7   9.6   5.7   4.7   3.4
09-25-17    4.4  14.0   9.2  17.9  23.0   8.9   5.3   4.6   3.4
09-26-17    4.2  13.9   9.2  17.6  22.0   8.1   5.1   4.4   3.3
09-27-17    3.9  13.6   9.1  17.7  21.7   7.4   4.5   4.3   3.2
09-28-17    3.5  13.3   8.9  17.6  21.7   7.4   4.2   4.1   3.2
09-29-17    3.3  12.9   8.6  17.4  21.7   7.3   3.9   4.1   3.0
09-30-17    3.1  12.7   8.3  17.1  21.5   7.2   3.6   3.8   2.8
10-01-17    3.1  12.6   8.1  16.8  21.2   7.0   3.5   3.5   2.7
10-02-17    3.1  12.6   8.1  16.7  20.9   6.7   3.3   3.3   2.6
10-03-17    3.0  12.6   8.1  16.6  20.8   6.5   3.1   3.1   2.5
10-04-17    2.8  12.5   8.0  16.6  20.7   6.4   3.0   3.0   2.3
10-05-17    2.8  12.4   8.0  16.6  20.7   6.4   3.0   2.9   2.2
10-06-17    2.7  12.3   7.9  16.5  20.7   6.4   3.0   2.9   2.2
10-07-17    2.6  12.2   7.8  16.5  20.7   6.4   2.9   2.9   2.1
10-08-17    2.4  12.1   7.7  16.4  20.6   6.3   2.9   2.8   2.1
10-09-17    2.3  11.9   7.7  16.3  20.5   6.2   2.9   2.8   2.1
10-10-17    2.3  11.9   7.5  16.3  20.5   6.2   2.8   2.8   2.1
10-11-17    2.2  11.8   7.5  16.2  20.4   6.1   2.8   2.8   2.1
10-12-17    2.1  11.8   7.5  16.1  20.3   6.0   2.7   2.7   2.0
10-13-17    2.1  11.7   7.4  16.1  20.3   6.0   2.6   2.7   2.0
10-14-17    2.0  11.6   7.4  16.1  20.2   6.0   2.6   2.7   2.0
10-15-17    2.0  11.6   7.3  16.0  20.2   5.9   2.6   2.7   2.0
10-16-17    1.9  11.5   7.3  16.0  20.2   5.9   2.6   2.6   2.0
10-17-17    1.8  11.5   7.3  16.0  20.1   5.9   2.6   2.6   2.0
10-18-17    1.7  11.4   7.2  16.0  20.1   5.8   2.5   2.6   2.0
10-19-17    1.7  11.4   7.2  15.9  20.1   5.8   2.5   2.6   2.0
10-20-17    1.6  11.3   7.2  15.9  20.1   5.8   2.5   2.5   2.0

NOTE: STAGE FORECASTS ARE BASED ON FUTURE RAINFALL COVERING
THE NEXT 48 HOURS.

END ORN


$$





USA.gov is the U.S. government's official web portal to all federal, state and local government web resources and services.